sensor_id;sensor_type;location;lat;lon;timestamp;temperature;humidity
40816;DHT22;26535;48.788;9.214;2023-04-25T05:03:11;8.90;99.90
40816;DHT22;26535;48.788;9.214;2023-04-25T05:05:40;8.90;99.90
40816;DHT22;26535;48.788;9.214;2023-04-25T05:08:29;8.90;99.90
40816;DHT22;26535;48.788;9.214;2023-04-25T05:11:12;8.90;99.90
40816;DHT22;26535;48.788;9.214;2023-04-25T05:13:54;8.90;99.90
40816;DHT22;26535;48.788;9.214;2023-04-25T05:16:40;9.00;99.90
40816;DHT22;26535;48.788;9.214;2023-04-25T05:19:35;9.10;99.90
40816;DHT22;26535;48.788;9.214;2023-04-25T05:22:14;9.10;99.90
40816;DHT22;26535;48.788;9.214;2023-04-25T05:25:09;9.20;99.90
40816;DHT22;26535;48.788;9.214;2023-04-25T05:28:04;9.30;99.90
40816;DHT22;26535;48.788;9.214;2023-04-25T05:30:40;9.30;99.90
40816;DHT22;26535;48.788;9.214;2023-04-25T05:33:10;9.50;99.90
40816;DHT22;26535;48.788;9.214;2023-04-25T05:35:37;9.60;99.90
40816;DHT22;26535;48.788;9.214;2023-04-25T05:38:02;9.60;99.90
40816;DHT22;26535;48.788;9.214;2023-04-25T05:40:48;9.60;99.90
40816;DHT22;26535;48.788;9.214;2023-04-25T05:43:37;9.60;99.90
40816;DHT22;26535;48.788;9.214;2023-04-25T05:46:19;9.70;99.90
40816;DHT22;26535;48.788;9.214;2023-04-25T05:49:04;9.70;99.90
40816;DHT22;26535;48.788;9.214;2023-04-25T05:51:49;9.60;99.90
40816;DHT22;26535;48.788;9.214;2023-04-25T05:54:41;9.60;99.90
40816;DHT22;26535;48.788;9.214;2023-04-25T05:57:06;9.60;99.90
40816;DHT22;26535;48.788;9.214;2023-04-25T05:59:32;9.50;99.90
40816;DHT22;26535;48.788;9.214;2023-04-25T06:01:58;9.40;99.90
40816;DHT22;26535;48.788;9.214;2023-04-25T06:04:25;9.30;99.90
40816;DHT22;26535;48.788;9.214;2023-04-25T06:06:50;9.20;99.90
40816;DHT22;26535;48.788;9.214;2023-04-25T06:09:16;9.20;99.90
40816;DHT22;26535;48.788;9.214;2023-04-25T06:11:42;9.20;99.90
40816;DHT22;26535;48.788;9.214;2023-04-25T06:14:08;9.30;99.90
40816;DHT22;26535;48.788;9.214;2023-04-25T06:16:39;9.30;99.90
40816;DHT22;26535;48.788;9.214;2023-04-25T06:19:04;9.40;99.90
40816;DHT22;26535;48.788;9.214;2023-04-25T06:21:30;9.50;99.90
40816;DHT22;26535;48.788;9.214;2023-04-25T06:23:58;9.60;99.90
40816;DHT22;26535;48.788;9.214;2023-04-25T06:26:23;9.60;99.90
40816;DHT22;26535;48.788;9.214;2023-04-25T06:28:49;9.60;99.90
40816;DHT22;26535;48.788;9.214;2023-04-25T06:31:15;9.70;99.90
40816;DHT22;26535;48.788;9.214;2023-04-25T06:33:42;9.80;99.90
40816;DHT22;26535;48.788;9.214;2023-04-25T06:36:08;9.90;99.90
40816;DHT22;26535;48.788;9.214;2023-04-25T06:38:35;9.90;99.90
40816;DHT22;26535;48.788;9.214;2023-04-25T06:41:01;10.00;99.90
40816;DHT22;26535;48.788;9.214;2023-04-25T06:43:30;10.10;99.90
40816;DHT22;26535;48.788;9.214;2023-04-25T06:46:28;10.20;99.80
40816;DHT22;26535;48.788;9.214;2023-04-25T06:48:56;10.20;99.90
40816;DHT22;26535;48.788;9.214;2023-04-25T06:51:22;10.20;99.80
40816;DHT22;26535;48.788;9.214;2023-04-25T06:53:51;10.20;99.90
40816;DHT22;26535;48.788;9.214;2023-04-25T06:56:25;10.30;99.90
40816;DHT22;26535;48.788;9.214;2023-04-25T06:58:58;10.50;99.70
40816;DHT22;26535;48.788;9.214;2023-04-25T07:01:31;10.50;99.30
40816;DHT22;26535;48.788;9.214;2023-04-25T07:03:59;10.50;99.90
40816;DHT22;26535;48.788;9.214;2023-04-25T07:06:25;10.50;99.90
40816;DHT22;26535;48.788;9.214;2023-04-25T07:08:52;10.40;99.90
40816;DHT22;26535;48.788;9.214;2023-04-25T07:11:18;10.40;99.70
40816;DHT22;26535;48.788;9.214;2023-04-25T07:13:43;10.30;99.80
40816;DHT22;26535;48.788;9.214;2023-04-25T07:16:09;10.30;99.90
40816;DHT22;26535;48.788;9.214;2023-04-25T07:18:35;10.30;99.90
40816;DHT22;26535;48.788;9.214;2023-04-25T07:21:02;10.30;99.90
40816;DHT22;26535;48.788;9.214;2023-04-25T07:23:28;10.30;99.90
40816;DHT22;26535;48.788;9.214;2023-04-25T07:25:54;10.30;99.90
40816;DHT22;26535;48.788;9.214;2023-04-25T07:28:23;10.20;99.90
40816;DHT22;26535;48.788;9.214;2023-04-25T07:30:49;10.20;99.90
40816;DHT22;26535;48.788;9.214;2023-04-25T07:33:15;10.20;99.90
40816;DHT22;26535;48.788;9.214;2023-04-25T07:35:41;10.10;99.90
40816;DHT22;26535;48.788;9.214;2023-04-25T07:38:06;10.10;99.90
40816;DHT22;26535;48.788;9.214;2023-04-25T07:40:33;10.20;99.90
40816;DHT22;26535;48.788;9.214;2023-04-25T07:43:04;10.20;99.90
40816;DHT22;26535;48.788;9.214;2023-04-25T07:45:37;10.00;99.90
40816;DHT22;26535;48.788;9.214;2023-04-25T07:48:03;10.10;99.90
40816;DHT22;26535;48.788;9.214;2023-04-25T07:50:31;9.90;99.90
40816;DHT22;26535;48.788;9.214;2023-04-25T07:52:57;9.90;99.90
40816;DHT22;26535;48.788;9.214;2023-04-25T07:55:28;10.00;99.90
40816;DHT22;26535;48.788;9.214;2023-04-25T07:58:02;9.90;99.90
40816;DHT22;26535;48.788;9.214;2023-04-25T08:00:30;9.70;99.90
40816;DHT22;26535;48.788;9.214;2023-04-25T08:03:16;9.70;99.90
40816;DHT22;26535;48.788;9.214;2023-04-25T08:05:42;9.70;99.90
40816;DHT22;26535;48.788;9.214;2023-04-25T08:08:12;9.70;99.90
40816;DHT22;26535;48.788;9.214;2023-04-25T08:10:38;9.70;99.90
40816;DHT22;26535;48.788;9.214;2023-04-25T08:13:04;9.60;99.90
40816;DHT22;26535;48.788;9.214;2023-04-25T08:15:30;9.50;99.90
40816;DHT22;26535;48.788;9.214;2023-04-25T08:17:55;9.50;99.90
40816;DHT22;26535;48.788;9.214;2023-04-25T08:20:21;9.40;99.90
40816;DHT22;26535;48.788;9.214;2023-04-25T08:22:49;9.40;99.90
40816;DHT22;26535;48.788;9.214;2023-04-25T08:25:41;9.40;99.90
40816;DHT22;26535;48.788;9.214;2023-04-25T08:28:10;9.50;99.90
40816;DHT22;26535;48.788;9.214;2023-04-25T08:30:36;9.60;99.90
40816;DHT22;26535;48.788;9.214;2023-04-25T08:33:07;9.50;99.90
40816;DHT22;26535;48.788;9.214;2023-04-25T08:35:58;9.60;99.90
40816;DHT22;26535;48.788;9.214;2023-04-25T08:38:25;9.50;99.90
40816;DHT22;26535;48.788;9.214;2023-04-25T08:40:52;9.40;99.90
40816;DHT22;26535;48.788;9.214;2023-04-25T08:43:20;9.30;99.90
40816;DHT22;26535;48.788;9.214;2023-04-25T08:45:46;9.30;99.90
40816;DHT22;26535;48.788;9.214;2023-04-25T08:48:40;9.20;99.90
40816;DHT22;26535;48.788;9.214;2023-04-25T08:51:07;9.10;99.90
40816;DHT22;26535;48.788;9.214;2023-04-25T08:53:34;9.10;99.90
40816;DHT22;26535;48.788;9.214;2023-04-25T08:56:03;9.10;99.90
40816;DHT22;26535;48.788;9.214;2023-04-25T08:58:33;9.20;99.90
40816;DHT22;26535;48.788;9.214;2023-04-25T09:00:59;9.20;99.90
40816;DHT22;26535;48.788;9.214;2023-04-25T09:03:28;9.20;99.90
40816;DHT22;26535;48.788;9.214;2023-04-25T09:05:54;9.10;99.90
40816;DHT22;26535;48.788;9.214;2023-04-25T09:08:21;9.20;99.90
40816;DHT22;26535;48.788;9.214;2023-04-25T09:10:47;9.10;99.90
40816;DHT22;26535;48.788;9.214;2023-04-25T09:13:14;9.10;99.90
40816;DHT22;26535;48.788;9.214;2023-04-25T09:15:58;9.10;99.90
40816;DHT22;26535;48.788;9.214;2023-04-25T09:18:38;9.20;99.90
40816;DHT22;26535;48.788;9.214;2023-04-25T09:21:11;9.10;99.90
40816;DHT22;26535;48.788;9.214;2023-04-25T09:23:47;9.00;99.90
40816;DHT22;26535;48.788;9.214;2023-04-25T09:26:18;9.00;99.90
40816;DHT22;26535;48.788;9.214;2023-04-25T09:28:45;9.00;99.90
40816;DHT22;26535;48.788;9.214;2023-04-25T09:31:24;8.90;99.90
40816;DHT22;26535;48.788;9.214;2023-04-25T09:34:01;8.90;99.90
40816;DHT22;26535;48.788;9.214;2023-04-25T09:36:29;9.00;99.90
40816;DHT22;26535;48.788;9.214;2023-04-25T09:39:01;9.00;99.90
40816;DHT22;26535;48.788;9.214;2023-04-25T09:41:37;9.10;99.90
40816;DHT22;26535;48.788;9.214;2023-04-25T09:44:03;9.00;99.90
40816;DHT22;26535;48.788;9.214;2023-04-25T09:46:35;9.10;99.90
40816;DHT22;26535;48.788;9.214;2023-04-25T09:49:08;9.00;99.90
40816;DHT22;26535;48.788;9.214;2023-04-25T09:51:59;9.10;99.90
40816;DHT22;26535;48.788;9.214;2023-04-25T09:54:34;9.10;99.90
40816;DHT22;26535;48.788;9.214;2023-04-25T09:57:16;9.20;99.90
40816;DHT22;26535;48.788;9.214;2023-04-25T09:59:55;9.10;99.90
40816;DHT22;26535;48.788;9.214;2023-04-25T10:02:26;9.00;99.90
40816;DHT22;26535;48.788;9.214;2023-04-25T10:04:55;8.90;99.90
40816;DHT22;26535;48.788;9.214;2023-04-25T10:07:29;8.80;99.90
40816;DHT22;26535;48.788;9.214;2023-04-25T10:10:01;8.50;99.90
40816;DHT22;26535;48.788;9.214;2023-04-25T10:12:28;8.40;99.90
40816;DHT22;26535;48.788;9.214;2023-04-25T10:14:55;8.20;99.90
40816;DHT22;26535;48.788;9.214;2023-04-25T10:17:21;8.10;99.90
40816;DHT22;26535;48.788;9.214;2023-04-25T10:19:47;8.10;99.90
40816;DHT22;26535;48.788;9.214;2023-04-25T10:22:38;8.00;99.90
40816;DHT22;26535;48.788;9.214;2023-04-25T10:25:03;8.10;99.90
40816;DHT22;26535;48.788;9.214;2023-04-25T10:27:30;8.00;99.90
40816;DHT22;26535;48.788;9.214;2023-04-25T10:30:07;8.10;99.90
40816;DHT22;26535;48.788;9.214;2023-04-25T10:32:36;8.20;99.90
40816;DHT22;26535;48.788;9.214;2023-04-25T10:35:24;8.20;99.90
40816;DHT22;26535;48.788;9.214;2023-04-25T10:38:09;8.40;99.90
40816;DHT22;26535;48.788;9.214;2023-04-25T10:40:35;8.40;99.90
40816;DHT22;26535;48.788;9.214;2023-04-25T10:43:33;8.50;99.90
40816;DHT22;26535;48.788;9.214;2023-04-25T10:45:59;8.70;99.90
40816;DHT22;26535;48.788;9.214;2023-04-25T10:48:31;8.80;99.90
40816;DHT22;26535;48.788;9.214;2023-04-25T10:51:10;8.80;99.90
40816;DHT22;26535;48.788;9.214;2023-04-25T10:53:36;8.70;99.90
40816;DHT22;26535;48.788;9.214;2023-04-25T10:56:17;8.60;99.90
40816;DHT22;26535;48.788;9.214;2023-04-25T10:58:47;8.40;99.90
40816;DHT22;26535;48.788;9.214;2023-04-25T11:01:14;8.30;99.90
40816;DHT22;26535;48.788;9.214;2023-04-25T11:03:41;8.30;99.90
40816;DHT22;26535;48.788;9.214;2023-04-25T11:06:23;8.40;99.90
40816;DHT22;26535;48.788;9.214;2023-04-25T11:08:52;8.40;99.90
40816;DHT22;26535;48.788;9.214;2023-04-25T11:11:18;8.30;99.90
40816;DHT22;26535;48.788;9.214;2023-04-25T11:13:47;8.30;99.90
40816;DHT22;26535;48.788;9.214;2023-04-25T11:16:13;8.30;99.90
40816;DHT22;26535;48.788;9.214;2023-04-25T11:18:44;8.20;99.90
40816;DHT22;26535;48.788;9.214;2023-04-25T11:21:11;8.20;99.90
40816;DHT22;26535;48.788;9.214;2023-04-25T11:23:37;8.30;99.90
40816;DHT22;26535;48.788;9.214;2023-04-25T11:26:05;8.40;99.90
40816;DHT22;26535;48.788;9.214;2023-04-25T11:28:31;8.40;99.90
40816;DHT22;26535;48.788;9.214;2023-04-25T11:30:57;8.60;99.90
40816;DHT22;26535;48.788;9.214;2023-04-25T11:33:24;8.70;99.90
40816;DHT22;26535;48.788;9.214;2023-04-25T11:35:53;8.80;99.90
40816;DHT22;26535;48.788;9.214;2023-04-25T11:38:18;8.90;99.90
40816;DHT22;26535;48.788;9.214;2023-04-25T11:40:44;9.10;99.90
40816;DHT22;26535;48.788;9.214;2023-04-25T11:43:14;9.30;99.90
40816;DHT22;26535;48.788;9.214;2023-04-25T11:45:40;9.40;99.90
40816;DHT22;26535;48.788;9.214;2023-04-25T11:48:06;9.50;99.90
40816;DHT22;26535;48.788;9.214;2023-04-25T11:50:31;9.50;99.90
40816;DHT22;26535;48.788;9.214;2023-04-25T11:52:57;9.80;99.90
40816;DHT22;26535;48.788;9.214;2023-04-25T11:55:23;10.00;99.90
40816;DHT22;26535;48.788;9.214;2023-04-25T11:57:49;10.00;99.90
40816;DHT22;26535;48.788;9.214;2023-04-25T12:00:20;9.90;99.90
40816;DHT22;26535;48.788;9.214;2023-04-25T12:02:50;9.90;99.90
40816;DHT22;26535;48.788;9.214;2023-04-25T12:05:16;9.90;99.90
40816;DHT22;26535;48.788;9.214;2023-04-25T12:07:42;10.10;99.90
40816;DHT22;26535;48.788;9.214;2023-04-25T12:10:10;10.10;99.90
40816;DHT22;26535;48.788;9.214;2023-04-25T12:12:38;10.20;99.90
40816;DHT22;26535;48.788;9.214;2023-04-25T12:15:15;10.60;99.90
40816;DHT22;26535;48.788;9.214;2023-04-25T12:17:49;10.60;99.90
40816;DHT22;26535;48.788;9.214;2023-04-25T12:20:17;10.60;99.90
40816;DHT22;26535;48.788;9.214;2023-04-25T12:22:47;10.70;99.90
40816;DHT22;26535;48.788;9.214;2023-04-25T12:25:39;10.40;99.90
40816;DHT22;26535;48.788;9.214;2023-04-25T12:28:13;10.30;99.90
40816;DHT22;26535;48.788;9.214;2023-04-25T12:31:12;10.50;99.90
40816;DHT22;26535;48.788;9.214;2023-04-25T12:33:40;10.30;99.90
40816;DHT22;26535;48.788;9.214;2023-04-25T12:36:07;10.20;99.90
40816;DHT22;26535;48.788;9.214;2023-04-25T12:38:43;10.20;99.90
40816;DHT22;26535;48.788;9.214;2023-04-25T12:41:08;9.80;99.90
40816;DHT22;26535;48.788;9.214;2023-04-25T12:43:34;9.70;99.90
40816;DHT22;26535;48.788;9.214;2023-04-25T12:46:00;9.60;99.90
40816;DHT22;26535;48.788;9.214;2023-04-25T12:48:26;9.80;99.90
40816;DHT22;26535;48.788;9.214;2023-04-25T12:50:52;10.30;99.90
40816;DHT22;26535;48.788;9.214;2023-04-25T12:53:19;10.50;99.90
40816;DHT22;26535;48.788;9.214;2023-04-25T12:55:45;11.10;99.90
40816;DHT22;26535;48.788;9.214;2023-04-25T12:58:15;11.60;99.90
40816;DHT22;26535;48.788;9.214;2023-04-25T13:00:41;12.30;99.90
40816;DHT22;26535;48.788;9.214;2023-04-25T13:03:08;12.80;99.90
40816;DHT22;26535;48.788;9.214;2023-04-25T13:05:34;13.00;99.90
40816;DHT22;26535;48.788;9.214;2023-04-25T13:08:00;13.00;99.90
40816;DHT22;26535;48.788;9.214;2023-04-25T13:10:26;13.70;99.90
40816;DHT22;26535;48.788;9.214;2023-04-25T13:12:52;14.10;98.50
40816;DHT22;26535;48.788;9.214;2023-04-25T13:15:18;14.90;98.90
40816;DHT22;26535;48.788;9.214;2023-04-25T13:17:43;14.30;96.30
40816;DHT22;26535;48.788;9.214;2023-04-25T13:20:09;14.40;96.00
40816;DHT22;26535;48.788;9.214;2023-04-25T13:22:38;14.50;94.50
40816;DHT22;26535;48.788;9.214;2023-04-25T13:25:06;14.20;95.20
40816;DHT22;26535;48.788;9.214;2023-04-25T13:27:33;13.60;97.10
40816;DHT22;26535;48.788;9.214;2023-04-25T13:30:03;13.70;97.90
40816;DHT22;26535;48.788;9.214;2023-04-25T13:32:36;13.60;98.70
40816;DHT22;26535;48.788;9.214;2023-04-25T13:35:07;13.80;98.10
40816;DHT22;26535;48.788;9.214;2023-04-25T13:37:34;14.00;98.50
40816;DHT22;26535;48.788;9.214;2023-04-25T13:40:04;13.80;97.60
40816;DHT22;26535;48.788;9.214;2023-04-25T13:42:31;14.20;95.90
40816;DHT22;26535;48.788;9.214;2023-04-25T13:44:57;14.10;95.50
40816;DHT22;26535;48.788;9.214;2023-04-25T13:47:22;13.60;96.00
40816;DHT22;26535;48.788;9.214;2023-04-25T13:49:49;13.40;95.40
40816;DHT22;26535;48.788;9.214;2023-04-25T13:52:15;13.10;96.70
40816;DHT22;26535;48.788;9.214;2023-04-25T13:54:41;12.90;97.90
40816;DHT22;26535;48.788;9.214;2023-04-25T13:57:07;13.00;98.00
40816;DHT22;26535;48.788;9.214;2023-04-25T13:59:33;13.20;97.10
40816;DHT22;26535;48.788;9.214;2023-04-25T14:01:59;13.60;97.90
40816;DHT22;26535;48.788;9.214;2023-04-25T14:04:24;14.20;98.10
40816;DHT22;26535;48.788;9.214;2023-04-25T14:06:50;15.20;95.20
40816;DHT22;26535;48.788;9.214;2023-04-25T14:09:17;16.70;93.10
40816;DHT22;26535;48.788;9.214;2023-04-25T14:11:43;16.80;91.80
40816;DHT22;26535;48.788;9.214;2023-04-25T14:14:09;16.10;91.40
40816;DHT22;26535;48.788;9.214;2023-04-25T14:16:35;15.80;92.80
40816;DHT22;26535;48.788;9.214;2023-04-25T14:19:01;14.70;93.60
40816;DHT22;26535;48.788;9.214;2023-04-25T14:21:29;15.30;94.00
40816;DHT22;26535;48.788;9.214;2023-04-25T14:23:57;16.40;91.20
40816;DHT22;26535;48.788;9.214;2023-04-25T14:26:23;17.40;90.90
40816;DHT22;26535;48.788;9.214;2023-04-25T14:28:50;20.30;84.20
40816;DHT22;26535;48.788;9.214;2023-04-25T14:31:16;20.80;77.70
40816;DHT22;26535;48.788;9.214;2023-04-25T14:33:41;19.70;81.10
40816;DHT22;26535;48.788;9.214;2023-04-25T14:36:09;19.20;79.30
40816;DHT22;26535;48.788;9.214;2023-04-25T14:38:34;19.80;77.50
40816;DHT22;26535;48.788;9.214;2023-04-25T14:41:00;19.50;77.50
40816;DHT22;26535;48.788;9.214;2023-04-25T14:43:26;18.90;79.90
40816;DHT22;26535;48.788;9.214;2023-04-25T14:45:52;18.50;80.10
40816;DHT22;26535;48.788;9.214;2023-04-25T14:48:18;18.10;82.40
40816;DHT22;26535;48.788;9.214;2023-04-25T14:50:45;18.10;81.60
40816;DHT22;26535;48.788;9.214;2023-04-25T14:53:11;18.10;79.00
40816;DHT22;26535;48.788;9.214;2023-04-25T14:55:38;17.50;80.30
40816;DHT22;26535;48.788;9.214;2023-04-25T14:58:03;17.20;81.70
40816;DHT22;26535;48.788;9.214;2023-04-25T15:00:29;16.70;83.60
40816;DHT22;26535;48.788;9.214;2023-04-25T15:02:57;16.00;84.20
40816;DHT22;26535;48.788;9.214;2023-04-25T15:05:23;15.80;88.60
40816;DHT22;26535;48.788;9.214;2023-04-25T15:07:49;16.10;85.10
40816;DHT22;26535;48.788;9.214;2023-04-25T15:10:16;15.90;87.80
40816;DHT22;26535;48.788;9.214;2023-04-25T15:12:43;15.50;88.70
40816;DHT22;26535;48.788;9.214;2023-04-25T15:15:10;14.90;90.10
40816;DHT22;26535;48.788;9.214;2023-04-25T15:17:43;14.80;90.70
40816;DHT22;26535;48.788;9.214;2023-04-25T15:20:10;14.70;90.70
40816;DHT22;26535;48.788;9.214;2023-04-25T15:22:37;14.90;90.50
40816;DHT22;26535;48.788;9.214;2023-04-25T15:25:03;17.20;88.00
40816;DHT22;26535;48.788;9.214;2023-04-25T15:27:29;20.10;78.70
40816;DHT22;26535;48.788;9.214;2023-04-25T15:29:56;22.00;72.70
40816;DHT22;26535;48.788;9.214;2023-04-25T15:32:21;22.60;70.10
40816;DHT22;26535;48.788;9.214;2023-04-25T15:34:48;21.40;71.20
40816;DHT22;26535;48.788;9.214;2023-04-25T15:37:15;20.90;72.80
40816;DHT22;26535;48.788;9.214;2023-04-25T15:39:41;21.70;71.20
40816;DHT22;26535;48.788;9.214;2023-04-25T15:42:07;21.00;70.90
40816;DHT22;26535;48.788;9.214;2023-04-25T15:44:33;19.70;73.50
40816;DHT22;26535;48.788;9.214;2023-04-25T15:46:59;18.50;76.60
40816;DHT22;26535;48.788;9.214;2023-04-25T15:49:24;17.60;80.50
40816;DHT22;26535;48.788;9.214;2023-04-25T15:51:50;17.00;82.60
40816;DHT22;26535;48.788;9.214;2023-04-25T15:54:17;16.50;82.60
40816;DHT22;26535;48.788;9.214;2023-04-25T15:56:43;16.10;84.40
40816;DHT22;26535;48.788;9.214;2023-04-25T15:59:10;15.50;84.50
40816;DHT22;26535;48.788;9.214;2023-04-25T16:01:36;15.10;86.20
40816;DHT22;26535;48.788;9.214;2023-04-25T16:04:02;14.70;86.80
40816;DHT22;26535;48.788;9.214;2023-04-25T16:06:28;14.50;86.90
40816;DHT22;26535;48.788;9.214;2023-04-25T16:08:54;14.40;88.40
40816;DHT22;26535;48.788;9.214;2023-04-25T16:11:21;14.20;89.30
40816;DHT22;26535;48.788;9.214;2023-04-25T16:13:47;14.20;89.60
40816;DHT22;26535;48.788;9.214;2023-04-25T16:16:13;14.30;89.10
40816;DHT22;26535;48.788;9.214;2023-04-25T16:18:40;14.10;89.60
40816;DHT22;26535;48.788;9.214;2023-04-25T16:21:06;13.80;89.80
40816;DHT22;26535;48.788;9.214;2023-04-25T16:23:32;13.60;90.50
40816;DHT22;26535;48.788;9.214;2023-04-25T16:25:58;13.50;90.90
40816;DHT22;26535;48.788;9.214;2023-04-25T16:28:23;13.40;91.10
40816;DHT22;26535;48.788;9.214;2023-04-25T16:30:49;13.20;91.20
40816;DHT22;26535;48.788;9.214;2023-04-25T16:33:15;13.30;90.60
40816;DHT22;26535;48.788;9.214;2023-04-25T16:35:41;13.50;90.40
40816;DHT22;26535;48.788;9.214;2023-04-25T16:38:06;13.60;90.90
40816;DHT22;26535;48.788;9.214;2023-04-25T16:40:32;13.30;90.50
40816;DHT22;26535;48.788;9.214;2023-04-25T16:42:58;13.30;90.60
40816;DHT22;26535;48.788;9.214;2023-04-25T16:45:23;13.20;90.60
40816;DHT22;26535;48.788;9.214;2023-04-25T16:47:50;13.00;91.20
40816;DHT22;26535;48.788;9.214;2023-04-25T16:50:18;12.90;91.50
40816;DHT22;26535;48.788;9.214;2023-04-25T16:52:44;12.70;92.30
40816;DHT22;26535;48.788;9.214;2023-04-25T16:55:10;12.60;92.70
40816;DHT22;26535;48.788;9.214;2023-04-25T16:57:36;12.50;92.20
40816;DHT22;26535;48.788;9.214;2023-04-25T17:00:03;12.10;92.20
40816;DHT22;26535;48.788;9.214;2023-04-25T17:02:29;12.10;92.70
40816;DHT22;26535;48.788;9.214;2023-04-25T17:04:55;12.10;93.30
40816;DHT22;26535;48.788;9.214;2023-04-25T17:07:20;12.00;93.10
40816;DHT22;26535;48.788;9.214;2023-04-25T17:09:49;12.00;93.20
40816;DHT22;26535;48.788;9.214;2023-04-25T17:12:16;11.90;93.10
40816;DHT22;26535;48.788;9.214;2023-04-25T17:14:42;11.80;93.50
40816;DHT22;26535;48.788;9.214;2023-04-25T17:17:08;11.80;93.70
40816;DHT22;26535;48.788;9.214;2023-04-25T17:19:34;11.60;93.80
40816;DHT22;26535;48.788;9.214;2023-04-25T17:22:00;11.60;94.00
40816;DHT22;26535;48.788;9.214;2023-04-25T17:24:25;11.60;94.10
40816;DHT22;26535;48.788;9.214;2023-04-25T17:26:51;11.50;94.30
40816;DHT22;26535;48.788;9.214;2023-04-25T17:29:17;11.40;94.40
40816;DHT22;26535;48.788;9.214;2023-04-25T17:31:43;11.30;95.00
40816;DHT22;26535;48.788;9.214;2023-04-25T17:34:09;11.20;95.60
40816;DHT22;26535;48.788;9.214;2023-04-25T17:36:37;11.10;95.80
40816;DHT22;26535;48.788;9.214;2023-04-25T17:39:03;11.00;96.10
40816;DHT22;26535;48.788;9.214;2023-04-25T17:41:30;11.00;96.40
40816;DHT22;26535;48.788;9.214;2023-04-25T17:43:56;10.80;96.90
40816;DHT22;26535;48.788;9.214;2023-04-25T17:46:22;10.80;97.50
40816;DHT22;26535;48.788;9.214;2023-04-25T17:48:48;10.60;97.60
40816;DHT22;26535;48.788;9.214;2023-04-25T17:51:14;10.50;97.90
40816;DHT22;26535;48.788;9.214;2023-04-25T17:53:40;10.50;98.40
40816;DHT22;26535;48.788;9.214;2023-04-25T17:56:06;10.20;98.80
40816;DHT22;26535;48.788;9.214;2023-04-25T17:58:33;10.00;99.90
40816;DHT22;26535;48.788;9.214;2023-04-25T18:00:59;9.80;99.90
40816;DHT22;26535;48.788;9.214;2023-04-25T18:03:24;9.60;99.90
40816;DHT22;26535;48.788;9.214;2023-04-25T18:05:50;9.40;99.90
40816;DHT22;26535;48.788;9.214;2023-04-25T18:08:16;9.10;99.90
40816;DHT22;26535;48.788;9.214;2023-04-25T18:10:42;9.00;99.90
40816;DHT22;26535;48.788;9.214;2023-04-25T18:13:08;8.90;99.90
40816;DHT22;26535;48.788;9.214;2023-04-25T18:15:33;8.80;99.90
40816;DHT22;26535;48.788;9.214;2023-04-25T18:17:59;8.70;99.90
40816;DHT22;26535;48.788;9.214;2023-04-25T18:20:27;8.60;99.90
40816;DHT22;26535;48.788;9.214;2023-04-25T18:22:53;8.60;99.90
40816;DHT22;26535;48.788;9.214;2023-04-25T18:25:19;8.60;99.90
40816;DHT22;26535;48.788;9.214;2023-04-25T18:27:45;8.60;99.90
40816;DHT22;26535;48.788;9.214;2023-04-25T18:30:11;8.40;99.90
40816;DHT22;26535;48.788;9.214;2023-04-25T18:32:38;8.40;99.90
40816;DHT22;26535;48.788;9.214;2023-04-25T18:35:04;8.40;99.90
40816;DHT22;26535;48.788;9.214;2023-04-25T18:37:30;8.30;99.90
40816;DHT22;26535;48.788;9.214;2023-04-25T18:39:56;8.40;99.90
40816;DHT22;26535;48.788;9.214;2023-04-25T18:42:21;8.40;99.90
40816;DHT22;26535;48.788;9.214;2023-04-25T18:44:47;8.20;99.90
40816;DHT22;26535;48.788;9.214;2023-04-25T18:47:13;8.30;99.90
40816;DHT22;26535;48.788;9.214;2023-04-25T18:49:39;8.40;99.90
40816;DHT22;26535;48.788;9.214;2023-04-25T18:52:06;8.50;99.90
40816;DHT22;26535;48.788;9.214;2023-04-25T18:54:35;8.50;99.90
40816;DHT22;26535;48.788;9.214;2023-04-25T18:57:01;8.50;99.90
40816;DHT22;26535;48.788;9.214;2023-04-25T18:59:27;8.50;99.90
40816;DHT22;26535;48.788;9.214;2023-04-25T19:01:53;8.50;99.90
40816;DHT22;26535;48.788;9.214;2023-04-25T19:04:19;8.50;99.90
40816;DHT22;26535;48.788;9.214;2023-04-25T19:06:45;8.50;99.90
40816;DHT22;26535;48.788;9.214;2023-04-25T19:09:13;8.60;99.90
40816;DHT22;26535;48.788;9.214;2023-04-25T19:11:39;8.70;99.90
40816;DHT22;26535;48.788;9.214;2023-04-25T19:14:05;8.70;99.90
40816;DHT22;26535;48.788;9.214;2023-04-25T19:16:31;8.70;99.90
40816;DHT22;26535;48.788;9.214;2023-04-25T19:19:03;8.80;99.90
40816;DHT22;26535;48.788;9.214;2023-04-25T19:21:31;8.70;99.90
40816;DHT22;26535;48.788;9.214;2023-04-25T19:23:57;8.70;99.90
40816;DHT22;26535;48.788;9.214;2023-04-25T19:26:23;8.70;99.90
40816;DHT22;26535;48.788;9.214;2023-04-25T19:29:09;8.70;99.90
40816;DHT22;26535;48.788;9.214;2023-04-25T19:31:37;8.70;99.90
40816;DHT22;26535;48.788;9.214;2023-04-25T19:34:04;8.70;99.90
40816;DHT22;26535;48.788;9.214;2023-04-25T19:36:30;8.70;99.90
40816;DHT22;26535;48.788;9.214;2023-04-25T19:38:56;8.70;99.90
40816;DHT22;26535;48.788;9.214;2023-04-25T19:41:27;8.60;99.90
40816;DHT22;26535;48.788;9.214;2023-04-25T19:43:53;8.60;99.90
40816;DHT22;26535;48.788;9.214;2023-04-25T19:46:19;8.60;99.90
40816;DHT22;26535;48.788;9.214;2023-04-25T19:48:45;8.70;99.90
40816;DHT22;26535;48.788;9.214;2023-04-25T19:51:12;8.70;99.90
40816;DHT22;26535;48.788;9.214;2023-04-25T19:53:38;8.60;99.90
40816;DHT22;26535;48.788;9.214;2023-04-25T19:56:03;8.60;99.90
40816;DHT22;26535;48.788;9.214;2023-04-25T19:58:29;8.60;99.90
40816;DHT22;26535;48.788;9.214;2023-04-25T20:00:55;8.60;99.90
40816;DHT22;26535;48.788;9.214;2023-04-25T20:03:24;8.60;99.90
40816;DHT22;26535;48.788;9.214;2023-04-25T20:05:52;8.70;99.90
40816;DHT22;26535;48.788;9.214;2023-04-25T20:08:18;8.60;99.90
40816;DHT22;26535;48.788;9.214;2023-04-25T20:10:43;8.60;99.90
40816;DHT22;26535;48.788;9.214;2023-04-25T20:13:09;8.70;99.90
40816;DHT22;26535;48.788;9.214;2023-04-25T20:15:36;8.60;99.90
40816;DHT22;26535;48.788;9.214;2023-04-25T20:18:02;8.70;99.90
40816;DHT22;26535;48.788;9.214;2023-04-25T20:20:27;8.70;99.90
40816;DHT22;26535;48.788;9.214;2023-04-25T20:22:53;8.70;99.90
40816;DHT22;26535;48.788;9.214;2023-04-25T20:25:20;8.60;99.90
40816;DHT22;26535;48.788;9.214;2023-04-25T20:27:46;8.60;99.90
40816;DHT22;26535;48.788;9.214;2023-04-25T20:30:12;8.60;99.90
40816;DHT22;26535;48.788;9.214;2023-04-25T20:32:38;8.50;99.90
40816;DHT22;26535;48.788;9.214;2023-04-25T20:35:06;8.60;99.90
40816;DHT22;26535;48.788;9.214;2023-04-25T20:37:34;8.60;99.90
40816;DHT22;26535;48.788;9.214;2023-04-25T20:40:02;8.60;99.90
40816;DHT22;26535;48.788;9.214;2023-04-25T20:42:28;8.60;99.90
40816;DHT22;26535;48.788;9.214;2023-04-25T20:44:54;8.60;99.90
40816;DHT22;26535;48.788;9.214;2023-04-25T20:47:20;8.60;99.90
40816;DHT22;26535;48.788;9.214;2023-04-25T20:49:47;8.60;99.90
40816;DHT22;26535;48.788;9.214;2023-04-25T20:52:12;8.60;99.90